• Join FlightAware (Why Join?)
  • Login
  • US Flag 
07:37PM EDT


 

Airport Tracker/Info


-or-


 

Live Flight TrackerFlight Track Log ✈ UAL4206 ✈ 25-Apr-2013 ✈ KIAD - KCLE

Flight Track Log - Related Links

Times and Time Zones

All times are in EDT time to prevent confusion due to time zone crossing. See the UAL4206 flight status page for this flight to view local times or setup timezone preferences in your user account.

Time Position Orientation Groundspeed Altitude Reporting Facility
EDT Latitude Longitude Course Direction KTS MPH feet Rate Location/Type
10:16PM 38.9500 -77.5167 North 170 196 1,900  Level Potomac TRACON
10:17PM 39.0000 -77.5667 322° Northwest 200 230 3,900 2,280 Climbing Potomac TRACON
10:18PM 39.0500 -77.6000 333° Northwest 218 251 6,500 2,220 Climbing Potomac TRACON
10:19PM 39.2648 -77.4500 North  Level FlightAware Approximate
10:19PM 39.1000 -77.6333 333° Northwest 232 267 8,400  Level Potomac TRACON
10:20PM 39.3477 -77.4500 North  Level FlightAware Approximate
10:20PM 39.1808 -77.6828 335° Northwest 276 318 10,700  Level Washington Center
10:21PM 39.4306 -77.4500 North  Level FlightAware Approximate
10:21PM 39.2531 -77.7250 336° Northwest 276 318 12,300  Level Washington Center
10:22PM 39.3292 -77.7731 334° Northwest 282 325 13,800 1,500 Climbing Washington Center
10:23PM 39.4075 -77.8236 333° Northwest 293 337 15,300 1,500 Climbing Washington Center
10:24PM 39.4900 -77.8747 334° Northwest 307 353 16,800 1,380 Climbing Washington Center
10:27PM 39.6897 -77.9986 334° Northwest 323 372 20,000 1,380 Climbing Cleveland Center
10:28PM 39.7722 -78.0550 332° Northwest 323 372 21,500 3,000 Climbing Cleveland Center
10:29PM 39.8506 -78.1142 330° Northwest 328 377 26,000 1,440 Climbing Cleveland Center
10:30PM 39.9089 -78.2014 311° West 321 369 24,400 -180 Descending Cleveland Center
10:31PM 39.9650 -78.2914 309° West 316 364 25,700 780 Climbing Cleveland Center
10:32PM 40.0208 -78.3792 310° West 316 364 26,000 120 Climbing Cleveland Center
10:33PM 40.0789 -78.4694 310° West 321 369 26,000  Level Cleveland Center
10:34PM 40.1367 -78.5600 310° West 321 369 26,000  Level Cleveland Center
10:35PM 40.1989 -78.6531 311° West 321 369 26,000  Level Cleveland Center
10:36PM 40.2522 -78.7358 310° West 328 377 26,000  Level Cleveland Center
10:37PM 40.3122 -78.8297 310° West 328 377 26,000  Level Cleveland Center
10:38PM 40.3658 -78.9236 307° West 328 377 26,000  Level Cleveland Center
10:39PM 40.4169 -79.0178 306° West 323 372 26,000  Level Cleveland Center
10:40PM 40.4725 -79.1092 309° West 318 366 26,000  Level Cleveland Center
10:41PM 40.5236 -79.2039 305° West 318 366 26,000  Level Cleveland Center
10:42PM 40.5833 -79.3092 307° West 318 366 26,000  Level Cleveland Center
10:43PM 40.6322 -79.3931 308° West 318 366 26,000  Level Cleveland Center
10:44PM 40.6831 -79.4878 305° West 318 366 26,000 -120 Level Cleveland Center
10:45PM 40.7361 -79.5803 307° West 318 366 25,800 -660 Descending Cleveland Center
10:46PM 40.7847 -79.6700 306° West 313 360 24,700 -900 Descending Cleveland Center
10:47PM 40.8333 -79.7597 306° West 308 354 24,000 -360 Descending Cleveland Center
10:48PM 40.8819 -79.8472 306° West 308 354 24,000  Level Cleveland Center
10:49PM 40.9306 -79.9344 306° West 308 354 24,000  Level Cleveland Center
10:50PM 40.9808 -80.0219 307° West 303 349 24,000  Level Cleveland Center
10:51PM 41.0250 -80.1069 305° West 298 343 24,000  Level Cleveland Center
10:52PM 41.0775 -80.2031 306° West 298 343 24,000  Level Cleveland Center
10:53PM 41.1236 -80.2881 306° West 293 337 24,000  Level Cleveland Center
10:54PM 41.1678 -80.3761 304° West 288 331 24,000  Level Cleveland Center
10:55PM 41.2158 -80.4617 307° West 281 323 24,000 -300 Level Cleveland Center
10:56PM 41.2617 -80.5472 305° West 281 323 23,500 -1,620 Descending Cleveland Center
10:57PM 41.3075 -80.6300 306° West 281 323 20,800 -2,880 Descending Cleveland Center
10:58PM 41.3492 -80.7242 301° West 286 329 17,800 -2,940 Descending Cleveland Center
10:59PM 41.3864 -80.8267 296° West 293 337 15,000 -2,700 Descending Cleveland Center
10:59PM 41.3969 -80.8544 297° West 300 345 14,400 -1,800 Descending Cleveland Center
11:00PM 41.4236 -80.9181 299° West 293 337 13,200 -1,740 Descending Cleveland Center
11:00PM 41.4319 -80.9458 292° West 274 315 12,700 -1,920 Descending Cleveland Center
11:01PM 41.4506 -81.0097 291° West 276 318 11,300 -1,920 Descending Cleveland Center
11:01PM 41.4525 -81.0347 276° West 256 295 10,800 -1,320 Descending Cleveland Center
11:02PM 41.4606 -81.1039 279° West 258 297 10,000 -840 Descending Cleveland Center
11:03PM 41.4683 -81.1956 276° West 252 290 9,400 -900 Descending Cleveland Center
11:04PM 41.4783 -81.2706 280° West 246 283 8,200 -1,440 Descending Cleveland Center
11:05PM 41.4861 -81.3536 277° West 231 266 6,600 -1,560 Descending Cleveland Center
11:06PM 41.4942 -81.4314 278° West 220 253 5,100 -1,200 Descending Cleveland Center
11:07PM 41.5058 -81.5314 279° West 204 235 4,000 -600 Descending Cleveland Center
11:08PM 41.5094 -81.5758 276° West 207 238 4,000  Level Cleveland Center
11:08PM 41.5114 -81.5981 277° West 191 220 4,000  Level Cleveland Center
11:09PM 41.5108 -81.6700 269° West 184 212 4,000 -300 Level Cleveland Center
11:10PM 41.4914 -81.7281 246° West 172 198 3,500 -540 Descending Cleveland Center